Time;durP1;ratioP1;P1;durP2;ratioP2;P2;SDS_P1;SDS_P2;PMS_P1;PMS_P2;Temp;Humidity;BMP_temperature;BMP_pressure;BME280_temperature;BME280_humidity;BME280_pressure;Samples;Min_cycle;Max_cycle;Signal;HPM_P1;HPM_P2
2022/09/10 00:00:42;;;;;;;5.65;0.90;;;15.30;99.90;;;;;;4991634;28;20406;-54
2022/09/10 00:03:08;;;;;;;4.50;1.10;;;15.30;99.90;;;;;;4990604;28;20402;-54
2022/09/10 00:05:42;;;;;;;5.38;1.10;;;15.20;99.90;;;;;;4991335;28;20410;-54
2022/09/10 00:08:09;;;;;;;5.00;1.10;;;15.20;99.90;;;;;;4990766;28;20891;-59
2022/09/10 00:10:39;;;;;;;4.70;0.90;;;15.20;99.90;;;;;;4991552;28;20405;-58
2022/09/10 00:13:05;;;;;;;5.30;1.10;;;15.20;99.90;;;;;;4990789;28;20481;-59
2022/09/10 00:15:31;;;;;;;7.40;1.23;;;15.10;99.90;;;;;;4991287;28;20387;-58
2022/09/10 00:17:57;;;;;;;4.50;0.90;;;15.20;99.90;;;;;;4991135;28;20403;-58
2022/09/10 00:20:23;;;;;;;7.00;1.00;;;15.20;99.90;;;;;;4990613;28;20402;-58
2022/09/10 00:22:49;;;;;;;4.30;0.80;;;15.20;99.90;;;;;;4991291;28;20475;-58
2022/09/10 00:25:15;;;;;;;4.93;1.00;;;15.20;99.90;;;;;;4990584;28;20772;-58
2022/09/10 00:27:40;;;;;;;6.83;1.10;;;15.20;99.90;;;;;;4991380;28;20944;-58
2022/09/10 00:30:06;;;;;;;4.50;1.05;;;15.20;99.90;;;;;;4990200;28;20395;-59
2022/09/10 00:32:33;;;;;;;5.32;1.10;;;15.20;99.90;;;;;;4990436;28;20441;-59
2022/09/10 00:35:00;;;;;;;8.40;1.15;;;15.20;99.90;;;;;;4991273;28;20398;-61
2022/09/10 00:37:26;;;;;;;7.60;1.80;;;15.20;99.90;;;;;;4990384;28;20399;-58
2022/09/10 00:39:51;;;;;;;4.95;1.33;;;15.30;99.90;;;;;;4990873;28;20722;-59
2022/09/10 00:42:17;;;;;;;7.00;1.10;;;15.30;99.90;;;;;;4990423;28;20462;-58
2022/09/10 00:44:43;;;;;;;7.88;1.77;;;15.30;99.90;;;;;;4990727;28;20414;-58
2022/09/10 00:47:36;;;;;;;6.57;1.60;;;15.50;99.90;;;;;;4990010;28;20859;-59
2022/09/10 00:50:18;;;;;;;4.83;1.10;;;15.50;99.90;;;;;;4990536;28;20402;-62
2022/09/10 00:52:46;;;;;;;5.32;1.40;;;15.60;99.90;;;;;;4990619;28;20779;-59
2022/09/10 00:55:13;;;;;;;7.90;1.40;;;15.40;99.90;;;;;;4990142;28;20394;-59
2022/09/10 00:57:40;;;;;;;6.55;1.10;;;15.40;99.90;;;;;;4973406;28;20459;-59
2022/09/10 01:00:11;;;;;;;9.35;1.70;;;15.50;99.90;;;;;;4990023;28;20409;-59
2022/09/10 01:02:37;;;;;;;4.97;1.02;;;15.50;99.90;;;;;;4990854;28;20822;-59
2022/09/10 01:05:04;;;;;;;6.13;1.35;;;15.50;99.90;;;;;;4989935;28;20414;-61
2022/09/10 01:07:32;;;;;;;6.10;1.38;;;15.50;99.90;;;;;;4973196;28;20900;-59
2022/09/10 01:10:00;;;;;;;5.03;1.20;;;15.40;99.90;;;;;;4990449;28;20844;-60
2022/09/10 01:12:26;;;;;;;5.00;1.30;;;15.40;99.90;;;;;;4990192;28;20429;-58
2022/09/10 01:15:14;;;;;;;5.70;1.07;;;15.40;99.90;;;;;;4990500;28;20422;-58
2022/09/10 01:17:52;;;;;;;4.70;1.00;;;15.40;99.90;;;;;;4990377;28;20453;-59
2022/09/10 01:20:46;;;;;;;5.40;1.10;;;15.40;99.90;;;;;;4989427;28;20398;-59
2022/09/10 01:23:14;;;;;;;6.00;1.10;;;15.30;99.90;;;;;;4989951;28;20387;-59
2022/09/10 01:25:54;;;;;;;4.97;0.90;;;15.30;99.90;;;;;;4990043;28;20883;-59
2022/09/10 01:28:34;;;;;;;4.88;1.20;;;15.20;99.90;;;;;;4989622;28;20430;-59
2022/09/10 01:31:18;;;;;;;7.30;0.90;;;15.10;99.90;;;;;;4990343;28;20429;-60
2022/09/10 01:34:07;;;;;;;11.10;1.45;;;14.90;99.90;;;;;;4990334;28;20426;-60
2022/09/10 01:36:38;;;;;;;4.10;0.90;;;14.90;99.90;;;;;;4989984;28;20390;-61
2022/09/10 01:39:05;;;;;;;4.55;1.10;;;14.80;99.90;;;;;;4989729;28;20389;-60
2022/09/10 01:41:31;;;;;;;5.88;0.90;;;14.80;99.90;;;;;;4990185;28;20860;-59
2022/09/10 01:43:56;;;;;;;5.07;0.90;;;14.80;99.90;;;;;;4993794;28;20381;-60
2022/09/10 01:46:50;;;;;;;5.15;1.30;;;14.80;99.90;;;;;;4993268;28;20386;-60
2022/09/10 01:49:17;;;;;;;4.95;1.02;;;14.90;99.90;;;;;;4993444;28;20382;-60
2022/09/10 01:52:00;;;;;;;4.75;0.70;;;14.90;99.90;;;;;;4994375;28;20888;-60
2022/09/10 01:54:45;;;;;;;5.60;0.90;;;14.80;99.90;;;;;;4993717;28;20951;-60
2022/09/10 01:57:29;;;;;;;5.30;1.00;;;14.80;99.90;;;;;;4992980;28;20856;-59
2022/09/10 02:00:16;;;;;;;4.20;0.90;;;14.80;99.90;;;;;;4993936;28;20441;-59
2022/09/10 02:03:04;;;;;;;5.00;1.00;;;14.90;99.90;;;;;;4993945;28;20898;-59
2022/09/10 02:05:34;;;;;;;4.60;0.90;;;14.90;99.90;;;;;;4993995;28;20871;-59
2022/09/10 02:08:04;;;;;;;4.95;0.80;;;15.00;99.90;;;;;;4993838;28;20436;-59
2022/09/10 02:10:30;;;;;;;6.20;1.40;;;15.00;99.90;;;;;;4993679;28;20598;-59
2022/09/10 02:12:55;;;;;;;5.80;1.10;;;15.00;99.90;;;;;;4993612;28;20816;-59
2022/09/10 02:15:25;;;;;;;7.80;0.93;;;15.00;99.90;;;;;;4993286;28;20474;-59
2022/09/10 02:17:52;;;;;;;6.60;1.40;;;15.10;99.90;;;;;;4993662;28;20395;-59
2022/09/10 02:20:20;;;;;;;5.50;0.90;;;15.00;99.90;;;;;;4992954;28;20397;-59
2022/09/10 02:22:54;;;;;;;8.38;1.10;;;15.10;99.90;;;;;;4993221;28;20740;-59
2022/09/10 02:25:19;;;;;;;6.18;1.00;;;15.10;99.90;;;;;;4992666;28;20418;-59
2022/09/10 02:27:45;;;;;;;6.60;1.10;;;15.30;99.90;;;;;;4993280;28;20398;-59
2022/09/10 02:30:11;;;;;;;6.07;1.20;;;15.30;99.90;;;;;;4992692;28;20861;-59
2022/09/10 02:32:36;;;;;;;5.32;1.05;;;15.30;99.90;;;;;;4992777;28;20414;-58
2022/09/10 02:35:02;;;;;;;6.30;0.90;;;15.40;99.90;;;;;;4993212;28;20386;-61
2022/09/10 02:37:28;;;;;;;4.90;1.15;;;15.50;99.90;;;;;;4992911;28;20864;-58
2022/09/10 02:39:54;;;;;;;6.90;1.48;;;15.50;99.90;;;;;;4993030;28;20391;-59
2022/09/10 02:42:21;;;;;;;4.80;1.30;;;15.40;99.90;;;;;;4992353;28;20390;-59
2022/09/10 02:44:47;;;;;;;4.80;1.10;;;15.40;99.90;;;;;;4993211;28;20439;-59
2022/09/10 02:47:12;;;;;;;9.48;1.30;;;15.30;99.90;;;;;;4992701;28;20556;-58
2022/09/10 02:49:38;;;;;;;6.60;1.40;;;15.20;99.90;;;;;;4993327;28;20501;-59
2022/09/10 02:52:05;;;;;;;5.60;1.10;;;15.40;99.90;;;;;;4992715;28;20792;-62
2022/09/10 02:54:31;;;;;;;5.90;1.33;;;15.30;99.90;;;;;;4991350;28;20386;-60
2022/09/10 02:56:57;;;;;;;5.03;0.75;;;15.40;99.90;;;;;;4973519;28;20388;-59
2022/09/10 02:59:23;;;;;;;6.43;1.50;;;15.20;99.90;;;;;;4955296;28;20487;-58
2022/09/10 03:01:49;;;;;;;6.28;0.90;;;15.20;99.90;;;;;;4973166;28;20870;-59
2022/09/10 03:04:16;;;;;;;5.27;1.03;;;15.30;99.90;;;;;;4972685;28;20482;-60
2022/09/10 03:06:48;;;;;;;7.10;1.70;;;15.30;99.90;;;;;;4973548;28;20435;-59
2022/09/10 03:09:13;;;;;;;6.00;1.10;;;15.30;99.90;;;;;;4964583;28;20388;-59
2022/09/10 03:11:39;;;;;;;4.90;1.00;;;15.30;99.90;;;;;;4973319;28;20869;-59
2022/09/10 03:14:07;;;;;;;6.50;1.20;;;15.30;99.90;;;;;;4975178;28;20416;-61
2022/09/10 03:16:33;;;;;;;5.40;1.00;;;15.30;99.90;;;;;;4973246;28;20459;-59
2022/09/10 03:18:59;;;;;;;5.80;1.30;;;15.20;99.90;;;;;;4972802;28;20475;-59
2022/09/10 03:21:24;;;;;;;5.17;1.20;;;15.30;99.90;;;;;;4983399;28;20867;-59
2022/09/10 03:23:52;;;;;;;5.25;1.25;;;15.30;99.90;;;;;;4992323;28;20383;-59
2022/09/10 03:26:20;;;;;;;5.70;1.40;;;15.20;99.90;;;;;;4991776;28;20398;-59
2022/09/10 03:28:46;;;;;;;4.47;1.30;;;15.30;99.90;;;;;;4992220;28;20821;-59
2022/09/10 03:31:12;;;;;;;5.30;1.30;;;15.30;99.90;;;;;;4991460;28;20390;-59
2022/09/10 03:33:39;;;;;;;5.00;1.35;;;15.40;99.90;;;;;;4992051;28;20759;-59
2022/09/10 03:36:06;;;;;;;5.75;1.00;;;15.40;99.90;;;;;;4991848;28;20437;-61
2022/09/10 03:38:31;;;;;;;5.38;1.27;;;15.40;99.90;;;;;;4992291;28;20379;-59
2022/09/10 03:40:59;;;;;;;6.60;1.30;;;15.40;99.90;;;;;;4992097;28;20442;-59
2022/09/10 03:43:25;;;;;;;6.85;1.20;;;15.50;99.90;;;;;;4991369;28;20394;-59
2022/09/10 03:45:51;;;;;;;5.30;1.20;;;15.60;99.90;;;;;;4991997;28;20410;-59
2022/09/10 03:48:18;;;;;;;6.40;1.20;;;15.60;99.90;;;;;;4984658;28;20439;-59
2022/09/10 03:50:44;;;;;;;4.43;0.90;;;15.60;99.90;;;;;;4972452;28;20479;-59
2022/09/10 03:53:11;;;;;;;4.63;1.30;;;15.60;99.90;;;;;;4971596;28;20420;-59
2022/09/10 03:55:37;;;;;;;4.88;0.80;;;15.50;99.90;;;;;;4972165;28;20392;-59
2022/09/10 03:58:04;;;;;;;5.32;0.90;;;15.50;99.90;;;;;;4972333;28;20747;-62
2022/09/10 04:00:31;;;;;;;6.00;1.33;;;15.50;99.90;;;;;;4972064;28;20480;-59
2022/09/10 04:02:57;;;;;;;4.85;1.20;;;15.50;99.90;;;;;;4972384;28;20786;-59
2022/09/10 04:05:24;;;;;;;6.10;1.17;;;15.50;99.90;;;;;;4971149;28;20459;-58
2022/09/10 04:07:50;;;;;;;6.20;1.30;;;15.60;99.90;;;;;;4971742;28;20457;-58
2022/09/10 04:10:17;;;;;;;4.90;1.00;;;15.60;99.90;;;;;;4971422;28;20909;-59
2022/09/10 04:12:44;;;;;;;6.72;1.20;;;15.60;99.90;;;;;;4972328;28;20384;-58
2022/09/10 04:15:10;;;;;;;4.60;1.30;;;15.40;99.90;;;;;;4971294;28;20444;-58
2022/09/10 04:17:36;;;;;;;6.20;1.25;;;15.40;99.90;;;;;;4971952;28;20388;-58
2022/09/10 04:20:02;;;;;;;5.13;0.93;;;15.50;99.90;;;;;;4954788;28;20539;-59
2022/09/10 04:22:28;;;;;;;7.07;1.25;;;15.50;99.90;;;;;;4971444;28;20403;-59
2022/09/10 04:24:54;;;;;;;4.67;1.20;;;15.50;99.90;;;;;;4971708;28;20408;-60
2022/09/10 04:27:21;;;;;;;5.88;1.30;;;15.50;99.90;;;;;;4971275;28;20393;-58
2022/09/10 04:29:47;;;;;;;5.30;1.10;;;15.50;99.90;;;;;;4971747;28;20874;-59
2022/09/10 04:32:13;;;;;;;5.00;1.20;;;15.50;99.90;;;;;;4970827;28;20428;-58
2022/09/10 04:34:38;;;;;;;5.40;1.25;;;15.50;99.90;;;;;;4971610;28;20388;-59
2022/09/10 04:37:04;;;;;;;6.00;1.20;;;15.40;99.90;;;;;;4971541;28;20472;-61
2022/09/10 04:39:31;;;;;;;4.75;1.10;;;15.80;99.90;;;;;;4971125;28;20392;-58
2022/09/10 04:41:56;;;;;;;6.30;0.98;;;15.40;99.90;;;;;;4971882;28;20713;-58
2022/09/10 04:44:22;;;;;;;5.43;1.20;;;15.40;99.90;;;;;;4970977;28;21218;-58
2022/09/10 04:46:48;;;;;;;5.70;1.30;;;15.40;99.90;;;;;;4971570;28;20883;-58
2022/09/10 04:49:13;;;;;;;4.67;1.40;;;15.40;99.90;;;;;;4970810;28;20392;-58
2022/09/10 04:51:39;;;;;;;5.17;1.23;;;15.40;99.90;;;;;;4971441;28;20389;-58
2022/09/10 04:54:05;;;;;;;5.47;1.30;;;15.40;99.90;;;;;;4971309;28;20451;-61
2022/09/10 04:56:31;;;;;;;6.50;1.40;;;15.40;99.90;;;;;;4970914;28;20419;-58
2022/09/10 04:58:57;;;;;;;5.95;1.30;;;15.50;99.90;;;;;;4971242;28;20827;-58
2022/09/10 05:01:22;;;;;;;7.20;1.40;;;15.50;99.90;;;;;;4970503;28;20432;-58
2022/09/10 05:03:48;;;;;;;6.13;1.33;;;15.50;99.90;;;;;;4971322;28;20940;-58
2022/09/10 05:06:14;;;;;;;6.68;1.80;;;15.50;99.90;;;;;;4970638;28;20404;-58
2022/09/10 05:08:39;;;;;;;4.70;1.20;;;15.50;99.90;;;;;;4971388;28;20385;-59
2022/09/10 05:11:05;;;;;;;5.57;1.20;;;15.50;99.90;;;;;;4969959;28;20845;-61
2022/09/10 05:13:31;;;;;;;5.75;1.10;;;15.50;99.90;;;;;;4970552;28;20402;-58
2022/09/10 05:15:58;;;;;;;5.80;1.10;;;15.60;99.90;;;;;;4970782;28;20396;-59
2022/09/10 05:18:27;;;;;;;5.63;1.30;;;15.50;99.90;;;;;;4970167;28;20925;-58
2022/09/10 05:20:53;;;;;;;5.13;1.40;;;15.50;99.90;;;;;;4971049;28;20384;-58
2022/09/10 05:23:18;;;;;;;4.90;1.10;;;15.60;99.90;;;;;;4970116;28;20452;-59
2022/09/10 05:25:44;;;;;;;4.60;1.10;;;15.60;99.90;;;;;;4970897;28;20897;-58
2022/09/10 05:28:10;;;;;;;4.50;1.10;;;15.60;99.90;;;;;;4970144;28;20400;-58
2022/09/10 05:30:36;;;;;;;5.70;1.10;;;15.60;99.90;;;;;;4970846;28;20431;-59
2022/09/10 05:33:02;;;;;;;4.93;1.30;;;15.60;99.90;;;;;;4970875;28;20423;-58
2022/09/10 05:35:29;;;;;;;5.20;1.10;;;15.60;99.90;;;;;;4970146;28;20479;-59
2022/09/10 05:37:58;;;;;;;5.22;1.23;;;15.50;99.90;;;;;;4971009;28;20450;-59
2022/09/10 05:40:24;;;;;;;4.90;1.10;;;15.60;99.90;;;;;;4970464;28;20415;-58
2022/09/10 05:42:49;;;;;;;7.90;1.20;;;15.50;99.90;;;;;;4970863;28;20384;-58
2022/09/10 05:45:17;;;;;;;6.87;1.33;;;15.50;99.90;;;;;;4970033;28;20460;-59
2022/09/10 05:47:43;;;;;;;4.30;1.00;;;15.60;99.90;;;;;;4970814;28;20829;-58
2022/09/10 05:50:10;;;;;;;5.70;1.20;;;15.60;99.90;;;;;;4970154;28;20388;-61
2022/09/10 05:52:35;;;;;;;5.43;1.20;;;15.60;99.90;;;;;;4970904;28;20396;-58
2022/09/10 05:55:01;;;;;;;4.10;0.80;;;15.60;99.90;;;;;;4970724;28;20393;-58
2022/09/10 05:57:27;;;;;;;4.68;1.20;;;15.60;99.90;;;;;;4969795;28;20411;-59
2022/09/10 05:59:52;;;;;;;5.60;1.10;;;15.60;99.90;;;;;;4970753;28;20487;-58
2022/09/10 06:02:19;;;;;;;4.55;1.00;;;15.60;99.90;;;;;;4970248;28;20523;-59
2022/09/10 06:04:44;;;;;;;5.45;0.90;;;15.60;99.90;;;;;;4984680;28;20419;-59
2022/09/10 06:07:10;;;;;;;4.80;1.00;;;15.60;99.90;;;;;;4998583;28;20739;-59
2022/09/10 06:09:36;;;;;;;5.50;0.90;;;15.60;99.90;;;;;;5002538;28;20386;-58
2022/09/10 06:12:02;;;;;;;4.20;0.80;;;15.60;99.90;;;;;;4989791;28;20459;-58
2022/09/10 06:14:27;;;;;;;6.03;0.98;;;15.60;99.90;;;;;;5000439;28;20487;-59
2022/09/10 06:16:54;;;;;;;4.50;0.90;;;15.70;99.90;;;;;;5009425;28;20389;-58
2022/09/10 06:19:20;;;;;;;5.03;0.90;;;15.80;99.90;;;;;;5008840;28;20786;-59
2022/09/10 06:21:46;;;;;;;5.93;1.05;;;15.80;99.90;;;;;;5007589;28;20468;-59
2022/09/10 06:24:13;;;;;;;5.50;0.90;;;15.80;99.90;;;;;;4989034;28;20517;-59
2022/09/10 06:26:38;;;;;;;5.97;1.20;;;15.80;99.90;;;;;;4989995;28;20401;-59
2022/09/10 06:29:04;;;;;;;4.50;1.00;;;15.90;99.90;;;;;;4990374;28;20387;-59
2022/09/10 06:31:30;;;;;;;5.30;1.20;;;15.90;99.90;;;;;;4992621;28;20437;-58
2022/09/10 06:33:55;;;;;;;4.70;1.00;;;16.00;99.90;;;;;;4986882;28;20965;-59
2022/09/10 06:36:21;;;;;;;4.60;1.02;;;16.10;99.90;;;;;;4987170;28;20449;-59
2022/09/10 06:38:48;;;;;;;4.23;0.80;;;16.10;99.90;;;;;;4994218;28;20387;-59
2022/09/10 06:41:15;;;;;;;4.90;0.90;;;16.20;99.90;;;;;;5011963;28;20460;-59
2022/09/10 06:43:42;;;;;;;5.00;0.90;;;16.40;99.90;;;;;;4995290;28;20397;-59
2022/09/10 06:46:12;;;;;;;5.40;1.10;;;16.50;99.90;;;;;;5012151;28;20511;-62
2022/09/10 06:48:40;;;;;;;6.40;1.20;;;16.60;99.90;;;;;;5012048;28;21252;-59
2022/09/10 06:51:07;;;;;;;5.20;1.00;;;16.60;99.90;;;;;;5012529;28;20472;-59
2022/09/10 06:53:33;;;;;;;4.78;1.08;;;15.30;99.90;;;;;;5012341;28;20392;-59
2022/09/10 06:56:00;;;;;;;5.20;1.23;;;16.70;99.90;;;;;;5012548;28;20395;-59
2022/09/10 06:58:27;;;;;;;5.95;1.00;;;16.70;99.90;;;;;;5011968;28;20431;-59
2022/09/10 07:00:54;;;;;;;5.10;1.10;;;16.90;99.90;;;;;;5012222;28;20443;-59
2022/09/10 07:03:21;;;;;;;4.50;1.03;;;17.10;99.90;;;;;;5011659;28;20389;-59
2022/09/10 07:05:47;;;;;;;4.90;1.00;;;17.40;73.00;;;;;;5012107;28;20435;-59
2022/09/10 07:08:16;;;;;;;5.93;1.17;;;17.60;24.20;;;;;;5011686;28;20475;-59
2022/09/10 07:10:44;;;;;;;4.75;1.30;;;17.80;1.00;;;;;;4995572;28;20411;-59
2022/09/10 07:13:11;;;;;;;5.47;1.15;;;17.80;1.00;;;;;;4994783;28;20882;-62
2022/09/10 07:15:45;;;;;;;5.10;1.05;;;17.30;1.00;;;;;;5012375;28;20397;-59
2022/09/10 07:18:13;;;;;;;5.18;1.20;;;17.50;28.70;;;;;;5004836;28;20876;-62
2022/09/10 07:20:42;;;;;;;4.20;0.85;;;17.60;1.00;;;;;;4992520;28;20391;-58
2022/09/10 07:23:10;;;;;;;4.22;0.90;;;17.60;1.00;;;;;;4991738;28;20968;-62
2022/09/10 07:25:36;;;;;;;4.65;1.00;;;17.80;1.00;;;;;;4992422;28;20440;-59
2022/09/10 07:28:02;;;;;;;4.40;0.90;;;18.00;1.00;;;;;;4973265;28;20388;-59
2022/09/10 07:30:29;;;;;;;4.78;0.80;;;18.20;1.00;;;;;;4971777;28;20384;-59
2022/09/10 07:32:55;;;;;;;5.20;0.90;;;18.20;1.00;;;;;;4972284;28;20424;-58
2022/09/10 07:35:21;;;;;;;4.50;0.90;;;18.20;1.00;;;;;;4972004;28;20942;-58
2022/09/10 07:37:46;;;;;;;6.20;1.00;;;18.20;1.00;;;;;;4972441;28;20384;-58
2022/09/10 07:40:13;;;;;;;4.50;0.70;;;18.00;1.00;;;;;;4973645;28;20424;-59
2022/09/10 07:42:39;;;;;;;4.60;1.00;;;17.90;1.00;;;;;;4992047;28;20390;-58
2022/09/10 07:45:06;;;;;;;5.90;1.00;;;17.70;1.00;;;;;;4991798;28;20413;-58
2022/09/10 07:47:32;;;;;;;4.25;0.80;;;17.50;1.00;;;;;;4991049;28;20786;-58
2022/09/10 07:49:59;;;;;;;5.13;0.90;;;17.20;1.00;;;;;;4991945;28;20481;-58
2022/09/10 07:52:24;;;;;;;5.20;1.30;;;17.10;1.00;;;;;;4990870;28;20390;-57
2022/09/10 07:54:50;;;;;;;4.80;0.70;;;17.00;1.00;;;;;;4992288;28;20405;-58
2022/09/10 07:57:16;;;;;;;4.60;1.00;;;16.60;1.00;;;;;;4990742;28;20383;-58
2022/09/10 07:59:42;;;;;;;5.70;1.08;;;17.10;1.00;;;;;;4991587;28;20466;-59
2022/09/10 08:02:13;;;;;;;4.63;1.00;;;17.50;1.00;;;;;;4991547;28;20391;-61
2022/09/10 08:04:39;;;;;;;4.70;0.90;;;17.60;1.00;;;;;;4991253;28;20422;-59
2022/09/10 08:07:05;;;;;;;4.30;0.90;;;17.70;1.00;;;;;;4991450;28;20729;-58
2022/09/10 08:09:30;;;;;;;5.30;1.00;;;17.70;1.00;;;;;;4986790;28;20420;-58
2022/09/10 08:11:56;;;;;;;5.80;1.13;;;17.60;1.00;;;;;;4981335;28;20883;-58
2022/09/10 08:14:22;;;;;;;5.20;1.00;;;17.80;1.00;;;;;;4984131;28;20402;-58
2022/09/10 08:16:48;;;;;;;4.70;0.80;;;18.00;1.00;;;;;;4981990;28;20909;-59
2022/09/10 08:19:14;;;;;;;4.55;0.80;;;18.10;1.00;;;;;;4971140;28;20399;-59
2022/09/10 08:21:40;;;;;;;5.20;1.00;;;18.30;99.90;;;;;;4979224;28;20426;-58
2022/09/10 08:24:07;;;;;;;5.90;0.90;;;;;;;;;;4981994;28;20390;-58
2022/09/10 08:26:33;;;;;;;4.60;0.90;;;19.70;99.90;;;;;;4980198;28;20476;-60
2022/09/10 08:28:58;;;;;;;4.70;0.80;;;20.60;1.00;;;;;;4980136;28;20383;-60
2022/09/10 08:31:25;;;;;;;4.93;0.90;;;20.60;1.00;;;;;;4976037;28;20473;-59
2022/09/10 08:33:54;;;;;;;5.00;0.90;;;20.20;99.90;;;;;;4977077;28;20430;-59
2022/09/10 08:36:24;;;;;;;6.35;0.90;;;19.90;47.30;;;;;;4978744;28;20451;-59
2022/09/10 08:38:50;;;;;;;5.40;1.00;;;19.30;1.00;;;;;;4979210;28;20498;-62
2022/09/10 08:41:53;;;;;;;5.00;1.10;;;19.20;99.90;;;;;;4980979;28;20418;-63
2022/09/10 08:44:33;;;;;;;6.20;1.20;;;19.20;1.00;;;;;;4974136;28;20425;-60
2022/09/10 08:47:09;;;;;;;4.80;1.10;;;19.00;25.80;;;;;;4990955;28;20423;-61
2022/09/10 08:49:50;;;;;;;7.00;1.63;;;18.80;99.90;;;;;;4990101;28;20874;-58
2022/09/10 08:52:39;;;;;;;7.70;0.95;;;19.50;99.90;;;;;;4989737;28;20397;-58
2022/09/10 08:55:10;;;;;;;5.73;1.30;;;20.00;1.00;;;;;;4974605;28;20414;-58
2022/09/10 08:57:40;;;;;;;6.32;1.23;;;20.50;99.90;;;;;;4973293;28;20448;-63
2022/09/10 09:00:11;;;;;;;6.03;1.10;;;21.00;1.00;;;;;;4977172;28;20406;-60
2022/09/10 09:02:56;;;;;;;8.68;1.40;;;21.20;43.60;;;;;;4979142;28;20425;-58
2022/09/10 09:05:27;;;;;;;5.75;1.10;;;21.20;1.00;;;;;;4977349;28;20423;-57
2022/09/10 09:07:54;;;;;;;5.70;1.20;;;20.60;99.90;;;;;;4976662;28;20418;-58
2022/09/10 09:10:19;;;;;;;8.02;1.38;;;20.10;99.90;;;;;;4976295;28;20490;-59
2022/09/10 09:13:27;;;;;;;4.93;1.20;;;19.70;99.90;;;;;;4981157;28;20414;-65
2022/09/10 09:16:21;;;;;;;7.57;1.30;;;20.20;1.00;;;;;;4975476;28;21014;-61
2022/09/10 09:18:53;;;;;;;4.90;1.00;;;20.60;1.00;;;;;;4975438;28;20414;-59
2022/09/10 09:21:42;;;;;;;6.20;1.05;;;20.70;99.90;;;;;;4973808;28;20883;-57
2022/09/10 09:24:19;;;;;;;6.30;1.20;;;20.20;1.00;;;;;;4969217;28;20493;-63
2022/09/10 09:26:46;;;;;;;6.90;1.67;;;20.60;99.90;;;;;;4979090;28;20419;-60
2022/09/10 09:29:26;;;;;;;6.43;1.30;;;20.60;99.90;;;;;;4984401;28;20414;-64
2022/09/10 09:31:56;;;;;;;6.10;0.90;;;20.30;99.90;;;;;;4983544;28;20410;-58
2022/09/10 09:34:28;;;;;;;7.72;1.00;;;20.50;99.90;;;;;;4977004;28;20442;-55
2022/09/10 09:36:56;;;;;;;6.40;1.30;;;20.40;99.90;;;;;;4979844;28;21218;-55
2022/09/10 09:39:44;;;;;;;6.28;1.40;;;20.30;99.90;;;;;;4980127;28;20411;-56
2022/09/10 09:42:34;;;;;;;8.73;1.35;;;20.00;99.90;;;;;;4963390;28;20421;-55
2022/09/10 09:45:26;;;;;;;5.72;1.40;;;19.70;99.90;;;;;;4980126;28;20418;-55
2022/09/10 09:47:53;;;;;;;5.50;1.00;;;19.10;1.00;;;;;;4979656;28;20599;-56
2022/09/10 09:50:19;;;;;;;5.40;1.20;;;18.70;98.60;;;;;;4976008;28;20395;-55
2022/09/10 09:52:46;;;;;;;8.07;1.30;;;18.70;1.00;;;;;;4987348;28;20462;-56
2022/09/10 09:55:40;;;;;;;6.50;1.10;;;18.70;1.00;;;;;;4972937;28;20442;-55
2022/09/10 09:58:21;;;;;;;5.18;1.10;;;18.80;99.90;;;;;;4975606;28;20422;-56
2022/09/10 10:00:48;;;;;;;5.53;1.20;;;18.80;1.00;;;;;;4976261;28;20393;-56
2022/09/10 10:03:26;;;;;;;7.47;1.40;;;18.80;99.90;;;;;;4978096;28;20435;-56
2022/09/10 10:06:09;;;;;;;5.10;1.00;;;18.60;23.90;;;;;;4984808;28;20420;-56
2022/09/10 10:08:54;;;;;;;6.20;1.10;;;18.60;99.90;;;;;;4984290;28;20418;-56
2022/09/10 10:11:21;;;;;;;7.25;1.50;;;18.40;77.00;;;;;;4980561;28;20402;-56
2022/09/10 10:13:50;;;;;;;6.10;1.10;;;18.10;1.00;;;;;;4991597;28;20446;-56
2022/09/10 10:16:35;;;;;;;7.18;1.40;;;17.80;1.00;;;;;;4986122;28;20400;-56
2022/09/10 10:19:01;;;;;;;7.18;1.20;;;17.80;1.00;;;;;;4981613;28;20500;-56
2022/09/10 10:21:32;;;;;;;6.90;1.60;;;18.10;1.00;;;;;;4985413;28;20422;-56
2022/09/10 10:23:58;;;;;;;7.07;1.23;;;19.30;99.90;;;;;;4977272;28;20741;-56
2022/09/10 10:26:27;;;;;;;6.13;1.00;;;20.50;1.00;;;;;;4984056;28;20541;-56
2022/09/10 10:28:58;;;;;;;5.10;1.10;;;20.50;99.90;;;;;;4985402;28;20411;-56
2022/09/10 10:31:38;;;;;;;4.68;1.00;;;20.50;99.90;;;;;;4990704;28;20430;-56
2022/09/10 10:34:15;;;;;;;7.10;1.15;;;20.20;1.00;;;;;;4973644;28;20428;-56
2022/09/10 10:36:52;;;;;;;5.00;0.90;;;19.40;95.50;;;;;;4979719;28;20419;-56
2022/09/10 10:39:20;;;;;;;7.00;1.10;;;19.10;99.90;;;;;;4982615;28;20410;-56
2022/09/10 10:42:19;;;;;;;5.95;1.30;;;19.00;99.90;;;;;;4980797;28;20439;-56
2022/09/10 10:45:10;;;;;;;7.50;1.33;;;19.20;1.00;;;;;;4984765;28;20543;-55
2022/09/10 10:48:08;;;;;;;4.90;0.90;;;20.00;1.00;;;;;;4980122;28;20937;-56
2022/09/10 10:50:41;;;;;;;4.90;0.90;;;20.00;1.00;;;;;;4969994;28;20497;-56
2022/09/10 10:53:28;;;;;;;5.28;1.10;;;20.10;1.00;;;;;;4978017;28;20419;-56
2022/09/10 10:56:05;;;;;;;7.35;0.80;;;20.40;1.00;;;;;;4981967;28;20778;-56
2022/09/10 10:58:48;;;;;;;5.40;0.93;;;20.90;1.00;;;;;;4977431;28;20485;-56
2022/09/10 11:01:24;;;;;;;4.60;0.80;;;20.90;99.90;;;;;;4974518;28;20928;-56
2022/09/10 11:04:11;;;;;;;4.60;0.85;;;20.50;1.00;;;;;;4979209;28;20422;-56
2022/09/10 11:06:43;;;;;;;5.40;1.10;;;20.80;11.40;;;;;;4977781;28;20458;-56
2022/09/10 11:09:32;;;;;;;7.00;1.10;;;21.00;1.00;;;;;;4976540;28;20408;-56
2022/09/10 11:12:02;;;;;;;5.50;1.00;;;21.10;99.90;;;;;;4968265;28;20483;-54
2022/09/10 11:14:39;;;;;;;7.03;1.20;;;21.80;99.90;;;;;;4974549;28;20424;-54
2022/09/10 11:17:18;;;;;;;5.80;1.10;;;21.80;99.90;;;;;;4978615;28;20531;-53
2022/09/10 11:19:56;;;;;;;5.55;1.10;;;21.70;1.00;;;;;;4973330;28;20404;-54
2022/09/10 11:22:28;;;;;;;7.10;1.50;;;21.80;1.00;;;;;;4989601;28;20864;-53
2022/09/10 11:25:15;;;;;;;5.40;0.90;;;21.90;1.00;;;;;;4992305;28;20572;-56
2022/09/10 11:27:51;;;;;;;4.75;0.90;;;21.50;1.00;;;;;;4982400;28;20891;-53
2022/09/10 11:30:18;;;;;;;7.05;0.90;;;21.10;1.00;;;;;;4997977;28;20385;-53
2022/09/10 11:33:08;;;;;;;4.80;0.90;;;20.90;1.00;;;;;;5011538;28;20868;-53
2022/09/10 11:35:39;;;;;;;5.28;0.93;;;21.10;1.00;;;;;;4978321;28;20443;-53
2022/09/10 11:38:19;;;;;;;4.90;0.80;;;21.20;1.00;;;;;;4979512;28;20387;-53
2022/09/10 11:41:05;;;;;;;5.95;0.93;;;21.00;1.00;;;;;;4989852;28;20841;-53
2022/09/10 11:43:42;;;;;;;6.30;1.30;;;21.10;1.00;;;;;;4991691;28;21129;-54
2022/09/10 11:46:15;;;;;;;5.00;0.80;;;20.90;1.00;;;;;;4991923;28;20425;-54
2022/09/10 11:49:22;;;;;;;6.30;1.50;;;20.90;1.00;;;;;;5009690;28;20389;-54
2022/09/10 11:51:49;;;;;;;6.25;1.30;;;20.80;1.00;;;;;;4926817;29;21207;-54
2022/09/10 11:54:33;;;;;;;4.90;1.00;;;20.60;1.00;;;;;;4976957;28;20404;-54
2022/09/10 11:57:37;;;;;;;5.78;1.00;;;20.90;1.00;;;;;;4985380;28;20856;-54
2022/09/10 12:00:16;;;;;;;5.93;1.20;;;21.20;1.00;;;;;;4990061;28;20391;-54
2022/09/10 12:03:12;;;;;;;4.90;0.98;;;21.50;1.00;;;;;;4982863;28;20503;-53
2022/09/10 12:06:09;;;;;;;5.10;1.10;;;20.80;1.00;;;;;;4972247;28;20427;-54
2022/09/10 12:09:09;;;;;;;4.90;1.00;;;21.10;1.00;;;;;;4971815;28;20488;-54
2022/09/10 12:11:52;;;;;;;6.18;1.10;;;20.90;1.00;;;;;;4971798;28;20566;-53
2022/09/10 12:14:20;;;;;;;5.65;1.10;;;20.70;1.00;;;;;;4971106;28;20475;-54
2022/09/10 12:16:57;;;;;;;8.30;1.20;;;20.60;1.00;;;;;;4979165;28;20540;-56
2022/09/10 12:19:58;;;;;;;6.10;0.88;;;20.70;1.00;;;;;;4982586;28;20391;-56
2022/09/10 12:22:35;;;;;;;4.80;1.08;;;20.90;1.00;;;;;;4960748;28;20412;-54
2022/09/10 12:25:27;;;;;;;6.68;1.08;;;20.70;1.00;;;;;;4983235;28;20416;-54
2022/09/10 12:28:01;;;;;;;5.60;1.05;;;20.30;1.00;;;;;;4984541;28;20886;-55
2022/09/10 12:30:28;;;;;;;4.93;0.90;;;20.00;1.00;;;;;;4979576;28;20405;-58
2022/09/10 12:32:56;;;;;;;7.40;1.00;;;20.00;1.00;;;;;;4993188;28;20424;-55
2022/09/10 12:35:31;;;;;;;6.60;1.07;;;19.80;1.00;;;;;;4984816;28;20538;-55
2022/09/10 12:38:34;;;;;;;6.10;1.20;;;19.80;1.00;;;;;;4990897;28;20493;-55
2022/09/10 12:41:01;;;;;;;6.30;1.03;;;19.90;1.00;;;;;;4987472;28;20395;-55
2022/09/10 12:43:39;;;;;;;6.38;1.08;;;20.20;1.00;;;;;;4987965;28;20383;-55
2022/09/10 12:46:07;;;;;;;6.07;1.20;;;20.60;1.00;;;;;;4989515;28;20427;-55
2022/09/10 12:48:35;;;;;;;6.70;1.45;;;20.70;1.00;;;;;;4987042;28;20416;-55
2022/09/10 12:51:15;;;;;;;7.05;1.20;;;20.90;1.00;;;;;;4991006;28;20900;-55
2022/09/10 12:54:02;;;;;;;6.60;0.90;;;20.90;1.00;;;;;;4981058;28;20400;-55
2022/09/10 12:56:43;;;;;;;6.70;1.25;;;21.00;1.00;;;;;;4984005;28;20413;-55
2022/09/10 12:59:28;;;;;;;8.27;1.30;;;21.00;1.00;;;;;;4985276;28;20916;-55
2022/09/10 13:01:54;;;;;;;5.90;1.10;;;20.70;1.00;;;;;;4984266;28;20482;-55
2022/09/10 13:04:27;;;;;;;6.75;1.10;;;20.70;1.00;;;;;;4985016;28;20486;-55
2022/09/10 13:07:05;;;;;;;5.90;1.05;;;20.80;1.00;;;;;;4986745;28;20431;-55
2022/09/10 13:09:35;;;;;;;5.20;1.40;;;20.70;1.00;;;;;;4986434;28;20388;-55
2022/09/10 13:12:05;;;;;;;6.47;1.00;;;20.90;1.00;;;;;;4986383;28;20396;-55